createdAt,value
2023-05-04T00:01:03.031Z,9.50
2023-05-04T00:03:30.371Z,9.50
2023-05-04T00:05:57.770Z,9.50
2023-05-04T00:08:24.955Z,9.40
2023-05-04T00:10:52.226Z,9.40
2023-05-04T00:13:19.415Z,9.30
2023-05-04T00:15:46.949Z,9.30
2023-05-04T00:18:14.267Z,9.30
2023-05-04T00:20:41.541Z,9.20
2023-05-04T00:23:08.754Z,9.20
2023-05-04T00:25:35.976Z,9.10
2023-05-04T00:28:03.174Z,9.10
2023-05-04T00:30:30.592Z,9.00
2023-05-04T00:32:57.845Z,9.00
2023-05-04T00:35:25.284Z,8.90
2023-05-04T00:37:52.485Z,8.90
2023-05-04T00:40:19.911Z,8.90
2023-05-04T00:42:47.594Z,8.80
2023-05-04T00:45:15.606Z,8.80
2023-05-04T00:47:43.933Z,8.80
2023-05-04T00:50:12.573Z,8.70
2023-05-04T00:52:42.840Z,8.70
2023-05-04T00:55:11.282Z,8.70
2023-05-04T00:57:39.290Z,8.60
2023-05-04T01:00:08.553Z,8.60
2023-05-04T01:02:35.942Z,8.60
2023-05-04T01:05:03.322Z,8.50
2023-05-04T01:07:46.090Z,8.50
2023-05-04T01:10:25.223Z,8.50
2023-05-04T01:13:00.921Z,8.50
2023-05-04T01:15:29.511Z,8.40
2023-05-04T01:17:56.915Z,8.40
2023-05-04T01:20:24.422Z,8.30
2023-05-04T01:22:51.971Z,8.40
2023-05-04T01:25:21.081Z,8.30
2023-05-04T01:28:02.326Z,8.30
2023-05-04T01:30:37.826Z,8.30
2023-05-04T01:33:06.248Z,8.30
2023-05-04T01:35:34.185Z,8.20
2023-05-04T01:38:01.966Z,8.20
2023-05-04T01:40:29.222Z,8.20
2023-05-04T01:42:57.450Z,8.10
2023-05-04T01:45:24.917Z,8.10
2023-05-04T01:47:52.299Z,8.10
2023-05-04T01:50:19.537Z,8.00
2023-05-04T01:52:46.714Z,8.00
2023-05-04T01:55:13.989Z,7.90
2023-05-04T01:57:41.263Z,7.90
2023-05-04T02:00:09.263Z,7.90
2023-05-04T02:02:45.621Z,7.90
2023-05-04T02:05:17.518Z,7.80
2023-05-04T02:07:44.725Z,7.80
2023-05-04T02:10:12.313Z,7.80
2023-05-04T02:12:39.770Z,7.80
2023-05-04T02:15:08.026Z,7.70
2023-05-04T02:17:35.401Z,7.70
2023-05-04T02:20:04.683Z,7.70
2023-05-04T02:22:32.462Z,7.70
2023-05-04T02:24:59.799Z,7.70
2023-05-04T02:27:27.099Z,7.60
2023-05-04T02:29:54.502Z,7.60
2023-05-04T02:32:21.855Z,7.60
2023-05-04T02:34:50.841Z,7.60
2023-05-04T02:37:18.305Z,7.50
2023-05-04T02:39:45.649Z,7.50
2023-05-04T02:42:13.414Z,7.50
2023-05-04T02:44:40.717Z,7.50
2023-05-04T02:47:09.978Z,7.40
2023-05-04T02:49:37.408Z,7.40
2023-05-04T02:52:04.930Z,7.40
2023-05-04T02:54:32.148Z,7.30
2023-05-04T02:56:59.367Z,7.30
2023-05-04T02:59:26.604Z,7.30
2023-05-04T03:01:53.907Z,7.30
2023-05-04T03:04:21.560Z,7.30
2023-05-04T03:06:48.916Z,7.20
2023-05-04T03:09:16.197Z,7.30
2023-05-04T03:11:44.384Z,7.20
2023-05-04T03:14:11.592Z,7.20
2023-05-04T03:16:38.966Z,7.20
2023-05-04T03:19:06.557Z,7.20
2023-05-04T03:21:33.747Z,7.20
2023-05-04T03:24:01.198Z,7.20
2023-05-04T03:26:28.639Z,7.10
2023-05-04T03:28:55.878Z,7.10
2023-05-04T03:31:23.280Z,7.10
2023-05-04T03:33:53.323Z,7.10
2023-05-04T03:36:22.030Z,7.00
2023-05-04T03:38:49.644Z,7.00
2023-05-04T03:41:17.207Z,7.00
2023-05-04T03:43:44.470Z,7.00
2023-05-04T03:46:13.137Z,7.00
2023-05-04T03:48:40.689Z,7.00
2023-05-04T03:51:11.007Z,7.00
2023-05-04T03:53:39.244Z,7.00
2023-05-04T03:56:08.270Z,7.00
2023-05-04T03:58:36.185Z,7.00
2023-05-04T04:01:05.464Z,6.90
2023-05-04T04:03:33.067Z,7.00
2023-05-04T04:06:00.484Z,7.00
2023-05-04T04:08:27.806Z,7.00
2023-05-04T04:10:55.380Z,7.00
2023-05-04T04:13:22.909Z,7.00
2023-05-04T04:15:50.443Z,7.10
2023-05-04T04:18:17.753Z,7.30
2023-05-04T04:20:45.853Z,7.50
2023-05-04T04:23:13.292Z,7.70
2023-05-04T04:25:41.404Z,7.90
2023-05-04T04:28:10.294Z,8.10
2023-05-04T04:30:37.947Z,8.30
2023-05-04T04:33:05.907Z,8.50
2023-05-04T04:35:33.397Z,8.70
2023-05-04T04:38:03.621Z,8.90
2023-05-04T04:40:31.356Z,9.10
2023-05-04T04:42:58.797Z,9.20
2023-05-04T04:45:26.323Z,9.40
2023-05-04T04:47:53.870Z,9.50
2023-05-04T04:50:21.584Z,9.70
2023-05-04T04:52:48.965Z,10.00
2023-05-04T04:55:17.176Z,10.20
2023-05-04T04:57:44.912Z,10.40
2023-05-04T05:00:15.787Z,10.70
2023-05-04T05:02:43.658Z,11.00
2023-05-04T05:05:12.898Z,11.40
2023-05-04T05:07:40.484Z,11.70
2023-05-04T05:10:08.724Z,11.90
2023-05-04T05:12:36.387Z,12.20
2023-05-04T05:15:04.592Z,12.40
2023-05-04T05:17:32.168Z,12.60
2023-05-04T05:19:59.602Z,12.80
2023-05-04T05:22:26.965Z,13.10
2023-05-04T05:24:54.422Z,13.30
2023-05-04T05:27:21.781Z,13.60
2023-05-04T05:29:49.126Z,13.80
2023-05-04T05:32:16.614Z,14.10
2023-05-04T05:34:44.129Z,14.40
2023-05-04T05:37:11.690Z,14.70
2023-05-04T05:39:39.188Z,15.00
2023-05-04T05:42:06.935Z,15.30
2023-05-04T05:44:37.376Z,15.60
2023-05-04T05:47:05.736Z,15.90
2023-05-04T05:49:33.277Z,16.20
2023-05-04T05:52:00.891Z,16.60
2023-05-04T05:54:31.137Z,17.00
2023-05-04T05:56:59.061Z,17.40
2023-05-04T05:59:26.416Z,17.80
2023-05-04T06:01:53.887Z,18.20
2023-05-04T06:04:21.308Z,18.60
2023-05-04T06:06:48.928Z,19.00
2023-05-04T06:09:16.901Z,19.40
2023-05-04T06:11:44.330Z,19.90
2023-05-04T06:14:12.003Z,20.40
2023-05-04T06:16:39.660Z,20.90
2023-05-04T06:19:07.365Z,21.40
2023-05-04T06:21:34.878Z,21.80
2023-05-04T06:24:02.301Z,22.20
2023-05-04T06:26:29.773Z,22.60
2023-05-04T06:28:57.401Z,23.00
2023-05-04T06:31:25.057Z,23.30
2023-05-04T06:33:52.997Z,23.70
2023-05-04T06:36:20.511Z,24.00
2023-05-04T06:38:48.008Z,24.40
2023-05-04T06:41:15.594Z,24.60
2023-05-04T06:43:43.506Z,24.90
2023-05-04T06:46:10.748Z,25.00
2023-05-04T06:48:38.050Z,25.30
2023-05-04T06:51:05.277Z,25.50
2023-05-04T06:53:32.815Z,25.70
2023-05-04T06:56:00.253Z,25.90
2023-05-04T06:58:27.665Z,26.10
2023-05-04T07:00:55.283Z,26.20
2023-05-04T07:03:22.709Z,26.30
2023-05-04T07:05:51.116Z,26.30
2023-05-04T07:08:19.725Z,26.40
2023-05-04T07:10:47.324Z,26.60
2023-05-04T07:13:15.510Z,26.80
2023-05-04T07:15:42.986Z,27.00
2023-05-04T07:18:10.592Z,27.20
2023-05-04T07:20:38.186Z,27.40
2023-05-04T07:23:05.691Z,27.50
2023-05-04T07:25:33.288Z,27.50
2023-05-04T07:28:01.033Z,27.50
2023-05-04T07:30:28.561Z,27.50
2023-05-04T07:32:56.372Z,27.60
2023-05-04T07:35:23.984Z,27.60
2023-05-04T07:37:51.680Z,27.60
2023-05-04T07:40:20.207Z,27.50
2023-05-04T07:42:47.909Z,27.30
2023-05-04T07:47:44.441Z,26.90
2023-05-04T07:50:12.379Z,26.90
2023-05-04T07:52:39.838Z,26.80
2023-05-04T07:55:08.237Z,26.80
2023-05-04T07:57:37.689Z,26.80
2023-05-04T08:00:06.845Z,26.80
2023-05-04T08:02:41.176Z,26.90
2023-05-04T08:05:09.122Z,26.80
2023-05-04T08:07:36.554Z,26.80
2023-05-04T08:10:04.731Z,26.90
2023-05-04T08:12:32.524Z,26.70
2023-05-04T08:14:59.998Z,26.70
2023-05-04T08:17:28.462Z,26.60
2023-05-04T08:19:56.169Z,26.60
2023-05-04T08:22:23.993Z,26.70
2023-05-04T08:24:51.472Z,26.80
2023-05-04T08:27:19.133Z,27.00
2023-05-04T08:29:46.738Z,27.10
2023-05-04T08:32:14.263Z,27.30
2023-05-04T08:34:41.751Z,27.40
2023-05-04T08:37:09.244Z,27.40
2023-05-04T08:39:38.017Z,27.50
2023-05-04T08:42:07.227Z,27.50
2023-05-04T08:44:35.418Z,27.60
2023-05-04T08:47:04.460Z,27.80
2023-05-04T08:49:32.143Z,28.00
2023-05-04T08:52:00.648Z,28.30
2023-05-04T08:54:28.899Z,28.60
2023-05-04T08:56:57.290Z,29.00
2023-05-04T08:59:27.250Z,29.20
2023-05-04T09:01:58.509Z,29.50
2023-05-04T09:04:29.352Z,29.70
2023-05-04T09:06:58.524Z,30.00
2023-05-04T09:09:29.603Z,30.10
2023-05-04T09:11:58.844Z,30.20
2023-05-04T09:14:33.699Z,30.20
2023-05-04T09:17:02.250Z,30.20
2023-05-04T09:19:34.535Z,30.30
2023-05-04T09:22:14.915Z,30.40
2023-05-04T09:24:42.535Z,30.40
2023-05-04T09:27:11.852Z,30.30
2023-05-04T09:29:41.207Z,30.30
2023-05-04T09:32:16.024Z,30.20
2023-05-04T09:34:49.075Z,30.00
2023-05-04T09:37:16.621Z,30.00
2023-05-04T09:39:51.686Z,29.90
2023-05-04T09:42:20.528Z,30.00
2023-05-04T09:45:05.369Z,30.00
2023-05-04T09:47:40.371Z,29.90
2023-05-04T09:50:11.755Z,29.80
2023-05-04T09:52:41.555Z,29.80
2023-05-04T09:55:13.381Z,29.70
2023-05-04T09:57:42.587Z,29.50
2023-05-04T10:00:16.191Z,29.30
2023-05-04T10:02:44.786Z,29.10
2023-05-04T10:05:16.622Z,28.70
2023-05-04T10:07:47.419Z,28.30
2023-05-04T10:10:15.716Z,27.90
2023-05-04T10:12:47.063Z,27.30
2023-05-04T10:15:15.981Z,26.70
2023-05-04T10:18:04.850Z,26.20
2023-05-04T10:20:53.431Z,25.80
2023-05-04T10:24:05.989Z,25.40
2023-05-04T10:26:50.404Z,25.10
2023-05-04T10:29:23.856Z,24.80
2023-05-04T10:31:53.271Z,24.60
2023-05-04T10:34:26.377Z,24.50
2023-05-04T10:36:54.062Z,24.40
2023-05-04T10:39:22.970Z,24.30
2023-05-04T10:42:16.580Z,24.20
2023-05-04T10:44:53.047Z,24.10
2023-05-04T10:47:34.210Z,24.00
2023-05-04T10:50:05.566Z,23.90
2023-05-04T10:52:44.978Z,23.80
2023-05-04T10:55:12.836Z,23.80
2023-05-04T10:57:56.935Z,23.70
2023-05-04T11:00:36.660Z,23.60
2023-05-04T11:03:05.067Z,23.60
2023-05-04T11:05:44.572Z,23.60
2023-05-04T11:08:20.084Z,23.70
2023-05-04T11:10:49.311Z,23.70
2023-05-04T11:13:17.059Z,23.80
2023-05-04T11:15:49.001Z,23.80
2023-05-04T11:18:26.635Z,23.80
2023-05-04T11:20:55.978Z,23.80
2023-05-04T11:23:23.523Z,23.80
2023-05-04T11:25:51.026Z,23.80
2023-05-04T11:28:18.573Z,23.70
2023-05-04T11:30:47.672Z,23.70
2023-05-04T11:33:16.201Z,23.70
2023-05-04T11:35:44.680Z,23.70
2023-05-04T11:38:19.881Z,23.70
2023-05-04T11:40:48.284Z,23.70
2023-05-04T11:43:16.526Z,23.70
2023-05-04T11:45:44.718Z,23.60
2023-05-04T11:48:13.234Z,23.60
2023-05-04T11:50:41.678Z,23.60
2023-05-04T11:53:13.758Z,23.60
2023-05-04T11:55:42.069Z,23.50
2023-05-04T11:58:11.100Z,23.60
2023-05-04T12:00:46.483Z,23.60
2023-05-04T12:03:25.997Z,23.70
2023-05-04T12:05:58.614Z,23.80
2023-05-04T12:08:27.451Z,23.90
2023-05-04T12:11:16.357Z,23.90
2023-05-04T12:13:46.032Z,24.00
2023-05-04T12:16:18.899Z,24.10
2023-05-04T12:18:47.440Z,24.10
2023-05-04T12:21:19.311Z,24.10
2023-05-04T12:23:47.471Z,24.10
2023-05-04T12:26:18.167Z,24.10
2023-05-04T12:28:47.357Z,24.10
2023-05-04T12:31:15.561Z,24.10
2023-05-04T12:33:43.042Z,24.20
2023-05-04T12:36:10.646Z,24.20
2023-05-04T12:38:39.137Z,24.20
2023-05-04T12:41:10.734Z,24.30
2023-05-04T12:43:38.972Z,24.30
2023-05-04T12:46:06.886Z,24.40
2023-05-04T12:48:34.348Z,24.50
2023-05-04T12:51:04.466Z,24.60
2023-05-04T12:53:32.441Z,24.60
2023-05-04T12:56:01.764Z,24.80
2023-05-04T12:58:30.753Z,24.80
2023-05-04T13:00:58.922Z,24.90
2023-05-04T13:03:26.484Z,24.90
2023-05-04T13:05:54.233Z,24.90
2023-05-04T13:08:22.013Z,24.90
2023-05-04T13:10:49.466Z,24.90
2023-05-04T13:13:19.102Z,24.80
2023-05-04T13:15:50.656Z,24.80
2023-05-04T13:18:18.063Z,24.80
2023-05-04T13:20:45.925Z,24.80
2023-05-04T13:23:14.034Z,24.80
2023-05-04T13:25:42.195Z,24.80
2023-05-04T13:28:09.663Z,24.80
2023-05-04T13:30:37.162Z,24.80
2023-05-04T13:33:13.272Z,24.70
2023-05-04T13:35:48.778Z,24.70
2023-05-04T13:38:16.168Z,24.80
2023-05-04T13:40:44.147Z,24.80
2023-05-04T13:43:11.570Z,24.90
2023-05-04T13:45:39.307Z,24.80
2023-05-04T13:48:06.878Z,24.90
2023-05-04T13:50:34.327Z,24.90
2023-05-04T13:53:02.766Z,24.90
2023-05-04T13:55:30.110Z,24.90
2023-05-04T13:57:58.214Z,25.00
2023-05-04T14:00:25.604Z,25.00
2023-05-04T14:02:53.068Z,24.90
2023-05-04T14:05:20.710Z,24.90
2023-05-04T14:07:48.129Z,24.90
2023-05-04T14:10:15.345Z,24.90
2023-05-04T14:12:42.817Z,24.90
2023-05-04T14:15:10.779Z,24.90
2023-05-04T14:17:39.578Z,25.00
2023-05-04T14:20:08.806Z,25.00
2023-05-04T14:22:38.158Z,25.00
2023-05-04T14:25:06.334Z,25.00
2023-05-04T14:27:36.794Z,25.00
2023-05-04T14:30:05.147Z,24.90
2023-05-04T14:32:32.627Z,25.00
2023-05-04T14:35:08.209Z,24.90
2023-05-04T14:37:37.854Z,24.90
2023-05-04T14:40:07.042Z,24.90
2023-05-04T14:42:35.521Z,24.90
2023-05-04T14:45:04.848Z,24.90
2023-05-04T14:47:33.618Z,24.90
2023-05-04T14:50:02.140Z,24.90
2023-05-04T14:52:29.663Z,24.90
2023-05-04T14:54:57.158Z,25.00
2023-05-04T14:57:24.690Z,25.00
2023-05-04T14:59:52.263Z,25.00
2023-05-04T15:02:19.772Z,25.00
2023-05-04T15:04:47.283Z,25.00
2023-05-04T15:07:16.146Z,24.90
2023-05-04T15:09:43.600Z,24.90
2023-05-04T15:12:11.030Z,24.80
2023-05-04T15:14:38.862Z,24.80
2023-05-04T15:17:07.243Z,24.80
2023-05-04T15:19:38.069Z,24.80
2023-05-04T15:22:06.505Z,24.70
2023-05-04T15:24:34.404Z,24.70
2023-05-04T15:27:02.253Z,24.70
2023-05-04T15:29:29.782Z,24.60
2023-05-04T15:31:57.456Z,24.60
2023-05-04T15:34:24.949Z,24.50
2023-05-04T15:36:52.718Z,24.50
2023-05-04T15:39:20.287Z,24.60
2023-05-04T15:41:47.769Z,24.60
2023-05-04T15:44:15.316Z,24.60
2023-05-04T15:46:42.817Z,24.60
2023-05-04T15:49:10.332Z,24.60
2023-05-04T15:51:37.798Z,24.60
2023-05-04T15:54:05.389Z,24.60
2023-05-04T15:56:32.875Z,24.60
2023-05-04T15:59:00.734Z,24.60
2023-05-04T16:01:28.357Z,24.60
2023-05-04T16:03:59.268Z,24.60
2023-05-04T16:06:26.968Z,24.50
2023-05-04T16:08:54.440Z,24.50
2023-05-04T16:11:21.799Z,24.50
2023-05-04T16:13:49.404Z,24.50
2023-05-04T16:16:16.940Z,24.40
2023-05-04T16:18:44.640Z,24.40
2023-05-04T16:21:14.040Z,24.40
2023-05-04T16:23:41.519Z,24.30
2023-05-04T16:26:08.913Z,24.30
2023-05-04T16:28:36.719Z,24.20
2023-05-04T16:31:09.622Z,24.20
2023-05-04T16:33:38.732Z,24.20
2023-05-04T16:36:07.560Z,24.10
2023-05-04T16:38:35.303Z,24.10
2023-05-04T16:41:02.818Z,24.10
2023-05-04T16:43:30.493Z,24.10
2023-05-04T16:45:58.073Z,24.10
2023-05-04T16:48:25.611Z,24.10
2023-05-04T16:50:53.054Z,24.10
2023-05-04T16:53:20.829Z,24.10
2023-05-04T16:55:48.376Z,24.00
2023-05-04T16:58:15.770Z,23.90
2023-05-04T17:00:43.511Z,23.90
2023-05-04T17:03:11.996Z,23.80
2023-05-04T17:05:39.560Z,23.80
2023-05-04T17:08:06.860Z,23.70
2023-05-04T17:10:34.133Z,23.60
2023-05-04T17:13:02.483Z,23.50
2023-05-04T17:15:30.176Z,23.50
2023-05-04T17:17:57.461Z,23.50
2023-05-04T17:20:31.622Z,23.40
2023-05-04T17:22:59.296Z,23.40
2023-05-04T17:25:27.248Z,23.30
2023-05-04T17:27:55.235Z,23.30
2023-05-04T17:30:22.767Z,23.30
2023-05-04T17:32:51.075Z,23.20
2023-05-04T17:35:24.999Z,23.10
2023-05-04T17:37:57.955Z,23.10
2023-05-04T17:40:27.566Z,23.10
2023-05-04T17:42:55.938Z,23.00
2023-05-04T17:45:23.406Z,23.00
2023-05-04T17:47:51.514Z,23.00
2023-05-04T17:50:19.616Z,22.90
2023-05-04T17:52:52.333Z,22.90
2023-05-04T17:55:19.965Z,22.80
2023-05-04T17:57:47.304Z,22.80
2023-05-04T18:00:15.451Z,22.70
2023-05-04T18:02:43.012Z,22.70
2023-05-04T18:05:10.835Z,22.60
2023-05-04T18:07:38.631Z,22.60
2023-05-04T18:10:07.316Z,22.50
2023-05-04T18:12:38.004Z,22.40
2023-05-04T18:15:08.857Z,22.30
2023-05-04T18:17:37.978Z,22.20
2023-05-04T18:20:08.127Z,22.10
2023-05-04T18:22:36.183Z,22.10
2023-05-04T18:25:03.662Z,22.00
2023-05-04T18:27:33.398Z,21.90
2023-05-04T18:30:01.557Z,21.80
2023-05-04T18:32:29.488Z,21.70
2023-05-04T18:34:57.883Z,21.60
2023-05-04T18:37:25.510Z,21.50
2023-05-04T18:39:52.900Z,21.40
2023-05-04T18:42:20.272Z,21.30
2023-05-04T18:44:47.647Z,21.20
2023-05-04T18:47:15.108Z,21.20
2023-05-04T18:49:43.970Z,21.10
2023-05-04T18:52:11.355Z,21.00
2023-05-04T18:54:38.773Z,20.90
2023-05-04T18:57:06.678Z,20.90
2023-05-04T18:59:35.021Z,20.80
2023-05-04T19:02:02.591Z,20.70
2023-05-04T19:04:30.038Z,20.60
2023-05-04T19:06:57.844Z,20.40
2023-05-04T19:09:25.364Z,20.40
2023-05-04T19:11:52.841Z,20.20
2023-05-04T19:14:21.517Z,20.10
2023-05-04T19:16:48.751Z,19.90
2023-05-04T19:19:16.107Z,19.80
2023-05-04T19:21:43.894Z,19.60
2023-05-04T19:24:11.242Z,19.40
2023-05-04T19:26:39.582Z,19.30
2023-05-04T19:29:07.043Z,19.10
2023-05-04T19:31:34.918Z,19.00
2023-05-04T19:34:02.569Z,18.90
2023-05-04T19:36:30.298Z,18.90
2023-05-04T19:38:57.619Z,18.80
2023-05-04T19:41:24.955Z,18.80
2023-05-04T19:43:52.308Z,18.70
2023-05-04T19:46:20.507Z,18.70
2023-05-04T19:48:47.832Z,18.70
2023-05-04T19:51:15.656Z,18.70
2023-05-04T19:53:43.041Z,18.60
2023-05-04T19:56:10.272Z,18.50
2023-05-04T19:58:38.495Z,18.50
2023-05-04T20:01:06.093Z,18.40
2023-05-04T20:03:33.474Z,18.30
2023-05-04T20:06:00.770Z,18.20
2023-05-04T20:08:28.208Z,18.10
2023-05-04T20:10:55.450Z,18.00
2023-05-04T20:13:22.736Z,17.90
2023-05-04T20:15:51.615Z,17.80
2023-05-04T20:18:20.048Z,17.80
2023-05-04T20:20:47.440Z,17.80
2023-05-04T20:23:14.819Z,17.70
2023-05-04T20:25:42.778Z,17.70
2023-05-04T20:28:10.121Z,17.70
2023-05-04T20:30:37.430Z,17.70
2023-05-04T20:33:04.854Z,17.70
2023-05-04T20:35:32.689Z,17.70
2023-05-04T20:38:00.513Z,17.70
2023-05-04T20:40:27.886Z,17.70
2023-05-04T20:42:55.254Z,17.70
2023-05-04T20:45:23.119Z,17.70
2023-05-04T20:47:50.509Z,17.70
2023-05-04T20:50:18.251Z,17.70
2023-05-04T20:52:45.859Z,17.60
2023-05-04T20:55:13.321Z,17.60
2023-05-04T20:57:40.951Z,17.50
2023-05-04T21:00:09.470Z,17.40
2023-05-04T21:02:37.225Z,17.40
2023-05-04T21:05:05.009Z,17.30
2023-05-04T21:07:32.394Z,17.20
2023-05-04T21:09:59.985Z,17.20
2023-05-04T21:12:27.413Z,17.10
2023-05-04T21:14:54.885Z,17.00
2023-05-04T21:17:22.667Z,17.00
2023-05-04T21:19:49.989Z,16.90
2023-05-04T21:22:17.673Z,16.80
2023-05-04T21:24:47.908Z,16.70
2023-05-04T21:27:15.261Z,16.70
2023-05-04T21:29:42.717Z,16.60
2023-05-04T21:32:10.186Z,16.40
2023-05-04T21:34:37.798Z,16.30
2023-05-04T21:37:05.321Z,16.20
2023-05-04T21:39:32.712Z,16.20
2023-05-04T21:42:02.385Z,16.10
2023-05-04T21:44:29.870Z,16.00
2023-05-04T21:46:57.564Z,16.00
2023-05-04T21:49:25.069Z,15.90
2023-05-04T21:51:52.504Z,15.90
2023-05-04T21:54:21.986Z,15.90
2023-05-04T21:56:49.237Z,15.80
2023-05-04T21:59:16.529Z,15.80
2023-05-04T22:01:44.206Z,15.70
2023-05-04T22:04:11.887Z,15.70
2023-05-04T22:06:39.289Z,15.60
2023-05-04T22:09:06.752Z,15.60
2023-05-04T22:11:34.083Z,15.50
2023-05-04T22:14:01.654Z,15.50
2023-05-04T22:16:28.977Z,15.40
2023-05-04T22:18:56.353Z,15.40
2023-05-04T22:21:23.616Z,15.30
2023-05-04T22:23:50.979Z,15.20
2023-05-04T22:26:18.347Z,15.20
2023-05-04T22:28:45.628Z,15.10
2023-05-04T22:31:12.927Z,15.10
2023-05-04T22:33:40.449Z,15.00
2023-05-04T22:36:08.176Z,15.00
2023-05-04T22:38:35.435Z,14.90
2023-05-04T22:41:03.123Z,14.90
2023-05-04T22:43:30.373Z,14.80
2023-05-04T22:45:57.646Z,14.80
2023-05-04T22:48:25.580Z,14.70
2023-05-04T22:50:53.086Z,14.70
2023-05-04T22:53:20.285Z,14.60
2023-05-04T22:55:47.593Z,14.60
2023-05-04T22:58:14.801Z,14.50
2023-05-04T23:00:43.080Z,14.50
2023-05-04T23:03:10.570Z,14.40
2023-05-04T23:05:38.038Z,14.40
2023-05-04T23:08:05.696Z,14.40
2023-05-04T23:10:33.278Z,14.30
2023-05-04T23:13:01.555Z,14.30
2023-05-04T23:15:29.057Z,14.30
2023-05-04T23:17:56.596Z,14.30
2023-05-04T23:20:24.061Z,14.20
2023-05-04T23:22:51.538Z,14.20
2023-05-04T23:25:18.922Z,14.20
2023-05-04T23:27:46.315Z,14.20
2023-05-04T23:30:14.105Z,14.10
2023-05-04T23:32:41.496Z,14.10
2023-05-04T23:35:09.356Z,14.00
2023-05-04T23:37:36.791Z,14.00
2023-05-04T23:40:07.103Z,13.90
2023-05-04T23:42:34.901Z,13.90
2023-05-04T23:45:02.737Z,13.80
2023-05-04T23:47:29.939Z,13.70
2023-05-04T23:49:57.602Z,13.70
2023-05-04T23:52:25.228Z,13.60
2023-05-04T23:54:54.038Z,13.60
2023-05-04T23:57:21.581Z,13.50
2023-05-04T23:59:49.015Z,13.40
